Covadonga — CQMQ — position and weather

sailwx.info

Track history (hours):
 
Tides and Currents Weather Stations Pressure Air Temp Water Temp Dewpoint Dewpoint Depression Visibility Wind Speed Wind Dir Waves Ship Positions

Covadonga

Last reported at 2017-Sep-21 22:21 UTC. Time now 2017-Sep-23 07:44 UTC.
Position N 37°12' E 004°35'.

Length 119 m; draft 5.5 m.

Type: Ship (hazmat cat A). MMSI: 255803540.

Date/timePositionNaut miles runAvg speedWind from/ knotsBaromVisibWave heightAir tempDewpointWater temp
2017-Sep-21 22:21N 37°12' E 004°35'2413.4
2017-Sep-21 20:36N 37°09' E 004°06'713.3
2017-Sep-21 20:06N 37°08' E 003°57'113.5
2017-Sep-21 20:00N 37°07' E 003°56'713.5
2017-Sep-21 19:30N 37°06' E 003°48'713.3
2017-Sep-21 18:59N 37°05' E 003°39'613.2
2017-Sep-21 18:30N 37°04' E 003°31'913.3
2017-Sep-21 17:49N 37°03' E 003°20'2513.5
2017-Sep-21 15:59N 36°60' E 002°49'713.5
2017-Sep-21 15:30N 36°59' E 002°41'713.5
2017-Sep-21 15:00N 36°57' E 002°33'713.5
2017-Sep-21 14:30N 36°56' E 002°25'913.2
2017-Sep-21 13:47N 36°54' E 002°13'413.0
2017-Sep-21 13:30N 36°54' E 002°09'612.9
2017-Sep-21 13:00N 36°53' E 002°01'14813.5
2017-Sep-21 02:05N 36°30' W 001°01'714.0
2017-Sep-21 01:37N 36°29' W 001°09'6214.1
2017-Sep-20 21:12N 36°20' W 002°26'13614.8
2017-Sep-20 12:01N 35°57' W 005°11'115.5
2017-Sep-20 11:57N 35°56' W 005°13'512.4
2017-Sep-20 11:30N 35°54' W 005°18'1 1.3
2017-Sep-20 11:00N 35°54' W 005°19'0 0.0
2017-Sep-20 10:30N 35°54' W 005°19'0 0.0
2017-Sep-20 10:00N 35°54' W 005°19'0 0.0
2017-Sep-20 09:30N 35°54' W 005°19'0 0.0
2017-Sep-20 09:00N 35°54' W 005°19'0 0.0
2017-Sep-20 08:30N 35°54' W 005°19'0 0.0
2017-Sep-20 08:00N 35°54' W 005°19'0 0.0
2017-Sep-20 07:30N 35°54' W 005°19'0 0.0
2017-Sep-20 07:00N 35°54' W 005°19'0 0.9
2017-Sep-20 06:31N 35°54' W 005°19'2 3.5
2017-Sep-20 06:00N 35°55' W 005°19'4 7.7
2017-Sep-20 05:30N 35°59' W 005°21'613.1
2017-Sep-20 05:00N 35°57' W 005°29'1115.2
2017-Sep-20 04:15N 35°54' W 005°43'3314.3
2017-Sep-20 01:58N 35°57' W 006°23'713.9
2017-Sep-20 01:27N 35°58' W 006°32'2313.7
2017-Sep-19 23:47N 36°04' W 006°59'413.9
2017-Sep-19 23:30N 36°06' W 007°03'2713.4
2017-Sep-19 21:30N 36°12' W 007°36'1813.7
2017-Sep-19 20:09N 36°17' W 007°58'413.9
2017-Sep-19 19:53N 36°18' W 008°02'814.1
2017-Sep-19 19:21N 36°20' W 008°12'714.0
2017-Sep-19 18:49N 36°22' W 008°20'1913.7
2017-Sep-19 17:25N 36°27' W 008°43'614.0
2017-Sep-19 16:58N 36°29' W 008°51'714.1
2017-Sep-19 16:30N 36°30' W 008°59'10913.2
2017-Sep-19 08:14N 38°09' W 009°56'414.1
2017-Sep-19 07:59N 38°13' W 009°58'714.1
2017-Sep-19 07:30N 38°19' W 009°60'714.1
2017-Sep-19 07:00N 38°26' W 010°02'714.6
2017-Sep-19 06:30N 38°33' W 010°04'815.1
2017-Sep-19 05:58N 38°41' W 010°06'715.8
2017-Sep-19 05:30N 38°48' W 010°06'815.4
2017-Sep-19 05:00N 38°56' W 010°06'815.4
2017-Sep-19 04:30N 39°04' W 010°06'815.5
2017-Sep-19 04:00N 39°12' W 010°07'815.0
2017-Sep-19 03:30N 39°19' W 010°07'815.1
2017-Sep-19 03:00N 39°27' W 010°08'915.3
2017-Sep-19 02:24N 39°36' W 010°08'31310.3
2017-Sep-17 20:02N 43°41' W 005°47'013.3
2017-Sep-17 20:00N 43°41' W 005°47'613.0
2017-Sep-17 19:31N 43°37' W 005°40'3 0.2
2017-Sep-16 21:09N 43°34' W 005°42'1 3.5
2017-Sep-16 20:57N 43°34' W 005°41'4 7.7
2017-Sep-16 20:25N 43°35' W 005°35'612.5
2017-Sep-16 19:56N 43°37' W 005°27'1112.0
2017-Sep-16 19:01N 43°37' W 005°12'6812.2
2017-Sep-16 13:26N 43°39' W 003°38'511.4
2017-Sep-16 13:00N 43°38' W 003°31'612.0
2017-Sep-16 12:30N 43°34' W 003°25'612.2
2017-Sep-16 12:00N 43°31' W 003°18'612.2
2017-Sep-16 11:30N 43°27' W 003°11'611.5
2017-Sep-16 11:00N 43°23' W 003°05'2 3.1
2017-Sep-16 10:29N 43°22' W 003°06'0 0.0
2017-Sep-16 09:59N 43°22' W 003°06'0 0.0
2017-Sep-16 09:29N 43°22' W 003°06'0 0.0
2017-Sep-16 08:59N 43°22' W 003°06'0 0.0
2017-Sep-16 08:28N 43°22' W 003°06'0 0.0
2017-Sep-16 07:59N 43°22' W 003°06'0 0.0
2017-Sep-16 07:28N 43°22' W 003°06'0 0.0
2017-Sep-16 06:58N 43°22' W 003°06'0 0.0
2017-Sep-16 06:28N 43°22' W 003°06'0 0.0
2017-Sep-16 05:58N 43°22' W 003°06'0 0.0
2017-Sep-16 05:29N 43°22' W 003°06'0 0.0
2017-Sep-16 04:58N 43°22' W 003°06'0 0.0
2017-Sep-16 04:29N 43°22' W 003°06'0 0.0
2017-Sep-16 03:52N 43°22' W 003°06'0 0.0
2017-Sep-16 03:29N 43°22' W 003°06'0 0.0
2017-Sep-16 02:59N 43°22' W 003°06'0 0.0
2017-Sep-16 02:28N 43°22' W 003°06'0 0.0
2017-Sep-16 01:58N 43°22' W 003°06'0 0.0
2017-Sep-16 01:28N 43°22' W 003°06'0 0.0
2017-Sep-16 00:56N 43°22' W 003°06'0 0.0
2017-Sep-16 00:29N 43°22' W 003°06'0 0.0
2017-Sep-15 23:58N 43°22' W 003°06'0 0.0
2017-Sep-15 23:28N 43°22' W 003°06'0 0.0
2017-Sep-15 22:59N 43°22' W 003°06'0 0.0
2017-Sep-15 22:29N 43°22' W 003°06'0 0.0
2017-Sep-15 21:59N 43°22' W 003°06'0 0.0
2017-Sep-15 21:28N 43°22' W 003°06'0 0.0
2017-Sep-15 20:58N 43°22' W 003°06'0 0.0
2017-Sep-15 20:28N 43°22' W 003°06'0 0.0
2017-Sep-15 19:58N 43°22' W 003°06'0 0.0
2017-Sep-15 19:28N 43°22' W 003°06'0 0.0
2017-Sep-15 18:58N 43°22' W 003°06'0 0.0
2017-Sep-15 18:29N 43°22' W 003°06'0 0.0
2017-Sep-15 17:58N 43°22' W 003°06'0 0.0
2017-Sep-15 17:28N 43°22' W 003°06'0 0.0
2017-Sep-15 16:58N 43°22' W 003°06'0 0.0
2017-Sep-15 16:28N 43°22' W 003°06'0 0.0
2017-Sep-15 15:58N 43°22' W 003°06'0 0.5
2017-Sep-15 15:31N 43°22' W 003°06'2 3.1
2017-Sep-15 15:00N 43°24' W 003°06'1 1.7
2017-Sep-15 14:28N 43°23' W 003°07'0 0.1
2017-Sep-15 13:58N 43°23' W 003°07'0 0.0
2017-Sep-15 13:28N 43°23' W 003°07'0 0.0
2017-Sep-15 12:58N 43°23' W 003°07'0 0.0
2017-Sep-15 12:28N 43°23' W 003°07'0 0.1
2017-Sep-15 11:58N 43°23' W 003°07'0 0.1
2017-Sep-15 11:28N 43°23' W 003°07'0 0.1
2017-Sep-15 10:58N 43°23' W 003°07'0 0.0
2017-Sep-15 10:28N 43°23' W 003°07'0 0.0
2017-Sep-15 09:58N 43°23' W 003°07'0 0.0
2017-Sep-15 09:28N 43°23' W 003°07'0 0.0
2017-Sep-15 08:58N 43°23' W 003°07'0 0.0
2017-Sep-15 08:28N 43°23' W 003°07'0 0.0
2017-Sep-15 07:58N 43°23' W 003°07'0 0.1
2017-Sep-15 07:28N 43°23' W 003°07'0 0.0
2017-Sep-15 06:58N 43°23' W 003°07'0 0.0
2017-Sep-15 06:28N 43°23' W 003°07'0 0.0
2017-Sep-15 05:58N 43°23' W 003°07'0 0.0
2017-Sep-15 05:28N 43°23' W 003°07'0 0.0
2017-Sep-15 04:58N 43°23' W 003°07'0 0.0
2017-Sep-15 04:28N 43°23' W 003°07'0 0.1
2017-Sep-15 03:58N 43°23' W 003°07'0 0.1
2017-Sep-15 03:28N 43°23' W 003°07'0 0.0
2017-Sep-15 02:58N 43°23' W 003°07'0 0.0
2017-Sep-15 02:28N 43°23' W 003°07'0 0.0
2017-Sep-15 01:58N 43°23' W 003°07'0 0.0
2017-Sep-15 01:28N 43°23' W 003°07'0 0.0
2017-Sep-15 00:58N 43°23' W 003°07'0 0.0
2017-Sep-15 00:28N 43°23' W 003°07'0 0.0
2017-Sep-14 23:58N 43°23' W 003°07'0 0.0
2017-Sep-14 23:25N 43°23' W 003°07'0 0.0
2017-Sep-14 22:58N 43°23' W 003°07'0 0.0
2017-Sep-14 22:28N 43°23' W 003°07'0 0.0
2017-Sep-14 21:58N 43°23' W 003°07'0 0.0
2017-Sep-14 21:25N 43°23' W 003°07'0 0.0
2017-Sep-14 20:55N 43°23' W 003°07'0 0.0
2017-Sep-14 20:28N 43°23' W 003°07'0 0.0
2017-Sep-14 19:58N 43°23' W 003°07'0 0.1
2017-Sep-14 19:28N 43°23' W 003°07'0 0.0
2017-Sep-14 18:58N 43°23' W 003°07'0 0.0
2017-Sep-14 18:28N 43°23' W 003°07'0 0.0
2017-Sep-14 17:58N 43°23' W 003°07'0 0.0
2017-Sep-14 17:25N 43°23' W 003°07'0 0.0
2017-Sep-14 16:58N 43°23' W 003°07'0 0.0
2017-Sep-14 16:28N 43°23' W 003°07'0 0.0
2017-Sep-14 15:58N 43°23' W 003°07'0 0.0
2017-Sep-14 15:28N 43°23' W 003°07'0 0.0
2017-Sep-14 14:58N 43°23' W 003°07'0 0.0
2017-Sep-14 14:28N 43°23' W 003°07'0 0.0
2017-Sep-14 13:58N 43°23' W 003°07'0 0.0
2017-Sep-14 13:28N 43°23' W 003°07'0 0.1
2017-Sep-14 12:58N 43°23' W 003°07'0 0.0
2017-Sep-14 12:28N 43°23' W 003°07'0 0.0
2017-Sep-14 11:58N 43°23' W 003°07'0 0.0
2017-Sep-14 11:25N 43°23' W 003°07'  
Track history (hours):
 
Tides and Currents Weather Stations Pressure Air Temp Water Temp Dewpoint Dewpoint Depression Visibility Wind Speed Wind Dir Waves Ship Positions

Covadonga

Last reported at 2017-Sep-21 22:21 UTC. Time now 2017-Sep-23 07:44 UTC.
Position N 37°12' E 004°35'.

Length 119 m; draft 5.5 m.

Type: Ship (hazmat cat A). MMSI: 255803540.

Date/timePositionNaut miles runAvg speedWind from/ knotsBaromVisibWave heightAir tempDewpointWater temp
2017-Sep-21 22:21N 37°12' E 004°35'2413.4
2017-Sep-21 20:36N 37°09' E 004°06'713.3
2017-Sep-21 20:06N 37°08' E 003°57'113.5
2017-Sep-21 20:00N 37°07' E 003°56'713.5
2017-Sep-21 19:30N 37°06' E 003°48'713.3
2017-Sep-21 18:59N 37°05' E 003°39'613.2
2017-Sep-21 18:30N 37°04' E 003°31'913.3
2017-Sep-21 17:49N 37°03' E 003°20'2513.5
2017-Sep-21 15:59N 36°60' E 002°49'713.5
2017-Sep-21 15:30N 36°59' E 002°41'713.5
2017-Sep-21 15:00N 36°57' E 002°33'713.5
2017-Sep-21 14:30N 36°56' E 002°25'913.2
2017-Sep-21 13:47N 36°54' E 002°13'413.0
2017-Sep-21 13:30N 36°54' E 002°09'612.9
2017-Sep-21 13:00N 36°53' E 002°01'14813.5
2017-Sep-21 02:05N 36°30' W 001°01'714.0
2017-Sep-21 01:37N 36°29' W 001°09'6214.1
2017-Sep-20 21:12N 36°20' W 002°26'13614.8
2017-Sep-20 12:01N 35°57' W 005°11'115.5
2017-Sep-20 11:57N 35°56' W 005°13'512.4
2017-Sep-20 11:30N 35°54' W 005°18'1 1.3
2017-Sep-20 11:00N 35°54' W 005°19'0 0.0
2017-Sep-20 10:30N 35°54' W 005°19'0 0.0
2017-Sep-20 10:00N 35°54' W 005°19'0 0.0
2017-Sep-20 09:30N 35°54' W 005°19'0 0.0
2017-Sep-20 09:00N 35°54' W 005°19'0 0.0
2017-Sep-20 08:30N 35°54' W 005°19'0 0.0
2017-Sep-20 08:00N 35°54' W 005°19'0 0.0
2017-Sep-20 07:30N 35°54' W 005°19'0 0.0
2017-Sep-20 07:00N 35°54' W 005°19'0 0.9
2017-Sep-20 06:31N 35°54' W 005°19'2 3.5
2017-Sep-20 06:00N 35°55' W 005°19'4 7.7
2017-Sep-20 05:30N 35°59' W 005°21'613.1
2017-Sep-20 05:00N 35°57' W 005°29'1115.2
2017-Sep-20 04:15N 35°54' W 005°43'3314.3
2017-Sep-20 01:58N 35°57' W 006°23'713.9
2017-Sep-20 01:27N 35°58' W 006°32'2313.7
2017-Sep-19 23:47N 36°04' W 006°59'413.9
2017-Sep-19 23:30N 36°06' W 007°03'2713.4
2017-Sep-19 21:30N 36°12' W 007°36'1813.7
2017-Sep-19 20:09N 36°17' W 007°58'413.9
2017-Sep-19 19:53N 36°18' W 008°02'814.1
2017-Sep-19 19:21N 36°20' W 008°12'714.0
2017-Sep-19 18:49N 36°22' W 008°20'1913.7
2017-Sep-19 17:25N 36°27' W 008°43'614.0
2017-Sep-19 16:58N 36°29' W 008°51'714.1
2017-Sep-19 16:30N 36°30' W 008°59'10913.2
2017-Sep-19 08:14N 38°09' W 009°56'414.1
2017-Sep-19 07:59N 38°13' W 009°58'714.1
2017-Sep-19 07:30N 38°19' W 009°60'714.1
2017-Sep-19 07:00N 38°26' W 010°02'714.6
2017-Sep-19 06:30N 38°33' W 010°04'815.1
2017-Sep-19 05:58N 38°41' W 010°06'715.8
2017-Sep-19 05:30N 38°48' W 010°06'815.4
2017-Sep-19 05:00N 38°56' W 010°06'815.4
2017-Sep-19 04:30N 39°04' W 010°06'815.5
2017-Sep-19 04:00N 39°12' W 010°07'815.0
2017-Sep-19 03:30N 39°19' W 010°07'815.1
2017-Sep-19 03:00N 39°27' W 010°08'915.3
2017-Sep-19 02:24N 39°36' W 010°08'31310.3
2017-Sep-17 20:02N 43°41' W 005°47'013.3
2017-Sep-17 20:00N 43°41' W 005°47'613.0
2017-Sep-17 19:31N 43°37' W 005°40'3 0.2
2017-Sep-16 21:09N 43°34' W 005°42'1 3.5
2017-Sep-16 20:57N 43°34' W 005°41'4 7.7
2017-Sep-16 20:25N 43°35' W 005°35'612.5
2017-Sep-16 19:56N 43°37' W 005°27'1112.0
2017-Sep-16 19:01N 43°37' W 005°12'6812.2
2017-Sep-16 13:26N 43°39' W 003°38'511.4
2017-Sep-16 13:00N 43°38' W 003°31'612.0
2017-Sep-16 12:30N 43°34' W 003°25'612.2
2017-Sep-16 12:00N 43°31' W 003°18'612.2
2017-Sep-16 11:30N 43°27' W 003°11'611.5
2017-Sep-16 11:00N 43°23' W 003°05'2 3.1
2017-Sep-16 10:29N 43°22' W 003°06'0 0.0
2017-Sep-16 09:59N 43°22' W 003°06'0 0.0
2017-Sep-16 09:29N 43°22' W 003°06'0 0.0
2017-Sep-16 08:59N 43°22' W 003°06'0 0.0
2017-Sep-16 08:28N 43°22' W 003°06'0 0.0
2017-Sep-16 07:59N 43°22' W 003°06'0 0.0
2017-Sep-16 07:28N 43°22' W 003°06'0 0.0
2017-Sep-16 06:58N 43°22' W 003°06'0 0.0
2017-Sep-16 06:28N 43°22' W 003°06'0 0.0
2017-Sep-16 05:58N 43°22' W 003°06'0 0.0
2017-Sep-16 05:29N 43°22' W 003°06'0 0.0
2017-Sep-16 04:58N 43°22' W 003°06'0 0.0
2017-Sep-16 04:29N 43°22' W 003°06'0 0.0
2017-Sep-16 03:52N 43°22' W 003°06'0 0.0
2017-Sep-16 03:29N 43°22' W 003°06'0 0.0
2017-Sep-16 02:59N 43°22' W 003°06'0 0.0
2017-Sep-16 02:28N 43°22' W 003°06'0 0.0
2017-Sep-16 01:58N 43°22' W 003°06'0 0.0
2017-Sep-16 01:28N 43°22' W 003°06'0 0.0
2017-Sep-16 00:56N 43°22' W 003°06'0 0.0
2017-Sep-16 00:29N 43°22' W 003°06'0 0.0
2017-Sep-15 23:58N 43°22' W 003°06'0 0.0
2017-Sep-15 23:28N 43°22' W 003°06'0 0.0
2017-Sep-15 22:59N 43°22' W 003°06'0 0.0
2017-Sep-15 22:29N 43°22' W 003°06'0 0.0
2017-Sep-15 21:59N 43°22' W 003°06'0 0.0
2017-Sep-15 21:28N 43°22' W 003°06'0 0.0
2017-Sep-15 20:58N 43°22' W 003°06'0 0.0
2017-Sep-15 20:28N 43°22' W 003°06'0 0.0
2017-Sep-15 19:58N 43°22' W 003°06'0 0.0
2017-Sep-15 19:28N 43°22' W 003°06'0 0.0
2017-Sep-15 18:58N 43°22' W 003°06'0 0.0
2017-Sep-15 18:29N 43°22' W 003°06'0 0.0
2017-Sep-15 17:58N 43°22' W 003°06'0 0.0
2017-Sep-15 17:28N 43°22' W 003°06'0 0.0
2017-Sep-15 16:58N 43°22' W 003°06'0 0.0
2017-Sep-15 16:28N 43°22' W 003°06'0 0.0
2017-Sep-15 15:58N 43°22' W 003°06'0 0.5
2017-Sep-15 15:31N 43°22' W 003°06'2 3.1
2017-Sep-15 15:00N 43°24' W 003°06'1 1.7
2017-Sep-15 14:28N 43°23' W 003°07'0 0.1
2017-Sep-15 13:58N 43°23' W 003°07'0 0.0
2017-Sep-15 13:28N 43°23' W 003°07'0 0.0
2017-Sep-15 12:58N 43°23' W 003°07'0 0.0
2017-Sep-15 12:28N 43°23' W 003°07'0 0.1
2017-Sep-15 11:58N 43°23' W 003°07'0 0.1
2017-Sep-15 11:28N 43°23' W 003°07'0 0.1
2017-Sep-15 10:58N 43°23' W 003°07'0 0.0
2017-Sep-15 10:28N 43°23' W 003°07'0 0.0
2017-Sep-15 09:58N 43°23' W 003°07'0 0.0
2017-Sep-15 09:28N 43°23' W 003°07'0 0.0
2017-Sep-15 08:58N 43°23' W 003°07'0 0.0
2017-Sep-15 08:28N 43°23' W 003°07'0 0.0
2017-Sep-15 07:58N 43°23' W 003°07'0 0.1
2017-Sep-15 07:28N 43°23' W 003°07'0 0.0
2017-Sep-15 06:58N 43°23' W 003°07'0 0.0
2017-Sep-15 06:28N 43°23' W 003°07'0 0.0
2017-Sep-15 05:58N 43°23' W 003°07'0 0.0
2017-Sep-15 05:28N 43°23' W 003°07'0 0.0
2017-Sep-15 04:58N 43°23' W 003°07'0 0.0
2017-Sep-15 04:28N 43°23' W 003°07'0 0.1
2017-Sep-15 03:58N 43°23' W 003°07'0 0.1
2017-Sep-15 03:28N 43°23' W 003°07'0 0.0
2017-Sep-15 02:58N 43°23' W 003°07'0 0.0
2017-Sep-15 02:28N 43°23' W 003°07'0 0.0
2017-Sep-15 01:58N 43°23' W 003°07'0 0.0
2017-Sep-15 01:28N 43°23' W 003°07'0 0.0
2017-Sep-15 00:58N 43°23' W 003°07'0 0.0
2017-Sep-15 00:28N 43°23' W 003°07'0 0.0
2017-Sep-14 23:58N 43°23' W 003°07'0 0.0
2017-Sep-14 23:25N 43°23' W 003°07'0 0.0
2017-Sep-14 22:58N 43°23' W 003°07'0 0.0
2017-Sep-14 22:28N 43°23' W 003°07'0 0.0
2017-Sep-14 21:58N 43°23' W 003°07'0 0.0
2017-Sep-14 21:25N 43°23' W 003°07'0 0.0
2017-Sep-14 20:55N 43°23' W 003°07'0 0.0
2017-Sep-14 20:28N 43°23' W 003°07'0 0.0
2017-Sep-14 19:58N 43°23' W 003°07'0 0.1
2017-Sep-14 19:28N 43°23' W 003°07'0 0.0
2017-Sep-14 18:58N 43°23' W 003°07'0 0.0
2017-Sep-14 18:28N 43°23' W 003°07'0 0.0
2017-Sep-14 17:58N 43°23' W 003°07'0 0.0
2017-Sep-14 17:25N 43°23' W 003°07'0 0.0
2017-Sep-14 16:58N 43°23' W 003°07'0 0.0
2017-Sep-14 16:28N 43°23' W 003°07'0 0.0
2017-Sep-14 15:58N 43°23' W 003°07'0 0.0
2017-Sep-14 15:28N 43°23' W 003°07'0 0.0
2017-Sep-14 14:58N 43°23' W 003°07'0 0.0
2017-Sep-14 14:28N 43°23' W 003°07'0 0.0
2017-Sep-14 13:58N 43°23' W 003°07'0 0.0
2017-Sep-14 13:28N 43°23' W 003°07'0 0.1
2017-Sep-14 12:58N 43°23' W 003°07'0 0.0
2017-Sep-14 12:28N 43°23' W 003°07'0 0.0
2017-Sep-14 11:58N 43°23' W 003°07'0 0.0
2017-Sep-14 11:25N 43°23' W 003°07'  

Dump ship's entire track history